createdAt,value
2018-06-10T00:02:16.695Z,94650.94
2018-06-10T00:04:42.674Z,94652.31
2018-06-10T00:07:08.664Z,94659.23
2018-06-10T00:09:34.657Z,94665.55
2018-06-10T00:12:00.642Z,94661.61
2018-06-10T00:14:26.632Z,94666.94
2018-06-10T00:16:52.615Z,94669.91
2018-06-10T00:19:18.596Z,94672.06
2018-06-10T00:21:44.582Z,94672.47
2018-06-10T00:24:10.572Z,94675.23
2018-06-10T00:26:36.549Z,94669.52
2018-06-10T00:29:02.534Z,94663.39
2018-06-10T00:31:28.522Z,94661.61
2018-06-10T00:33:54.499Z,94659.61
2018-06-10T00:36:20.478Z,94654.69
2018-06-10T00:38:46.459Z,94655.09
2018-06-10T00:41:12.444Z,94656.07
2018-06-10T00:43:38.422Z,94657.45
2018-06-10T00:46:04.436Z,94651.52
2018-06-10T00:48:30.381Z,94651.52
2018-06-10T00:50:56.362Z,94653.70
2018-06-10T00:53:22.350Z,94655.67
2018-06-10T00:55:48.322Z,94650.13
2018-06-10T00:58:14.308Z,94652.31
2018-06-10T01:00:40.283Z,94657.05
2018-06-10T01:03:06.267Z,94650.13
2018-06-10T01:05:32.258Z,94645.98
2018-06-10T01:07:58.245Z,94650.13
2018-06-10T01:10:24.233Z,94650.53
2018-06-10T01:12:50.214Z,94648.75
2018-06-10T01:15:16.193Z,94653.30
2018-06-10T01:17:42.231Z,94647.77
2018-06-10T01:20:08.209Z,94656.07
2018-06-10T01:22:34.186Z,94644.20
2018-06-10T01:25:00.199Z,94641.02
2018-06-10T01:27:26.187Z,94644.20
2018-06-10T01:29:52.183Z,94645.58
2018-06-10T01:32:18.177Z,94655.27
2018-06-10T01:34:44.160Z,94651.11
2018-06-10T01:37:10.139Z,94651.91
2018-06-10T01:39:36.125Z,94658.44
2018-06-10T01:42:02.108Z,94658.03
2018-06-10T01:44:28.089Z,94664.95
2018-06-10T01:46:54.077Z,94659.02
2018-06-10T01:49:20.073Z,94658.03
2018-06-10T01:51:46.050Z,94657.23
2018-06-10T01:54:12.047Z,94666.52
2018-06-10T01:56:38.028Z,94665.36
2018-06-10T01:59:04.024Z,94656.83
2018-06-10T02:01:30.018Z,94660.41
2018-06-10T02:03:56.008Z,94662.37
2018-06-10T02:06:22.005Z,94654.06
2018-06-10T02:08:47.984Z,94651.70
2018-06-10T02:11:13.963Z,94650.31
2018-06-10T02:13:39.957Z,94652.49
2018-06-10T02:16:05.962Z,94644.59
2018-06-10T02:18:31.947Z,94657.45
2018-06-10T02:20:57.931Z,94648.16
2018-06-10T02:23:23.919Z,94648.73
2018-06-10T02:25:49.898Z,94649.54
2018-06-10T02:28:15.892Z,94648.73
2018-06-10T02:30:41.877Z,94642.80
2018-06-10T02:33:07.856Z,94644.00
2018-06-10T02:35:33.867Z,94644.98
2018-06-10T02:37:59.841Z,94648.73
2018-06-10T02:40:25.822Z,94651.51
2018-06-10T02:42:51.803Z,94652.89
2018-06-10T02:45:17.786Z,94651.11
2018-06-10T02:47:43.772Z,94656.24
2018-06-10T02:50:09.754Z,94652.49
2018-06-10T02:52:35.730Z,94658.43
2018-06-10T02:55:01.726Z,94654.45
2018-06-10T02:57:27.707Z,94658.03
2018-06-10T02:59:53.696Z,94662.58
2018-06-10T03:02:19.679Z,94661.78
2018-06-10T03:04:45.657Z,94672.27
2018-06-10T03:07:11.646Z,94682.95
2018-06-10T03:09:37.620Z,94673.25
2018-06-10T03:12:03.596Z,94680.77
2018-06-10T03:14:29.575Z,94683.13
2018-06-10T03:16:55.555Z,94690.05
2018-06-10T03:19:21.542Z,94682.76
2018-06-10T03:21:47.526Z,94684.91
2018-06-10T03:24:13.511Z,94677.01
2018-06-10T03:26:39.559Z,94679.38
2018-06-10T03:29:05.481Z,94677.99
2018-06-10T03:31:31.458Z,94682.76
2018-06-10T03:33:57.453Z,94680.57
2018-06-10T03:36:23.437Z,94679.19
2018-06-10T03:38:49.416Z,94673.25
2018-06-10T03:41:15.401Z,94674.05
2018-06-10T03:43:41.386Z,94670.88
2018-06-10T03:46:07.412Z,94676.42
2018-06-10T03:48:33.386Z,94684.72
2018-06-10T03:50:59.368Z,94684.91
2018-06-10T03:53:25.353Z,94677.98
2018-06-10T03:55:51.357Z,94687.09
2018-06-10T03:58:17.337Z,94680.57
2018-06-10T04:00:43.316Z,94686.69
2018-06-10T04:03:09.339Z,94679.59
2018-06-10T04:05:35.316Z,94677.41
2018-06-10T04:08:01.293Z,94680.17
2018-06-10T04:10:27.269Z,94681.16
2018-06-10T04:12:53.263Z,94686.69
2018-06-10T04:15:19.250Z,94688.08
2018-06-10T04:17:45.290Z,94689.06
2018-06-10T04:20:11.271Z,94686.69
2018-06-10T04:22:37.262Z,94690.44
2018-06-10T04:25:03.240Z,94693.61
2018-06-10T04:27:29.227Z,94696.37
2018-06-10T04:29:55.225Z,94694.59
2018-06-10T04:32:21.212Z,94704.69
2018-06-10T04:34:47.197Z,94698.34
2018-06-10T04:37:13.192Z,94694.59
2018-06-10T04:39:39.184Z,94695.98
2018-06-10T04:42:05.168Z,94701.91
2018-06-10T04:44:31.155Z,94698.75
2018-06-10T04:46:57.148Z,94697.77
2018-06-10T04:49:23.120Z,94702.90
2018-06-10T04:51:49.115Z,94703.11
2018-06-10T04:54:15.128Z,94719.51
2018-06-10T04:56:41.146Z,94719.72
2018-06-10T04:59:07.096Z,94721.51
2018-06-10T05:01:33.082Z,94725.26
2018-06-10T05:03:59.065Z,94724.64
2018-06-10T05:06:25.055Z,94726.03
2018-06-10T05:08:51.027Z,94723.27
2018-06-10T05:11:17.021Z,94724.64
2018-06-10T05:13:42.997Z,94721.51
2018-06-10T05:16:08.984Z,94723.88
2018-06-10T05:18:34.971Z,94721.51
2018-06-10T05:21:00.959Z,94721.88
2018-06-10T05:23:26.941Z,94720.13
2018-06-10T05:25:52.938Z,94722.89
2018-06-10T05:28:18.958Z,94722.89
2018-06-10T05:30:44.950Z,94725.66
2018-06-10T05:33:10.988Z,94727.05
2018-06-10T05:35:36.966Z,94723.88
2018-06-10T05:38:02.950Z,94729.99
2018-06-10T05:40:28.938Z,94729.02
2018-06-10T05:42:54.934Z,94729.81
2018-06-10T05:45:20.909Z,94720.70
2018-06-10T05:47:46.902Z,94716.95
2018-06-10T05:50:12.885Z,94721.11
2018-06-10T05:52:38.872Z,94718.34
2018-06-10T05:55:04.853Z,94722.50
2018-06-10T05:57:30.857Z,94720.72
2018-06-10T05:59:56.830Z,94717.55
2018-06-10T06:02:22.819Z,94718.76
2018-06-10T06:04:48.904Z,94721.31
2018-06-10T06:07:14.896Z,94725.87
2018-06-10T06:09:40.881Z,94724.30
2018-06-10T06:12:06.866Z,94727.27
2018-06-10T06:14:32.846Z,94730.83
2018-06-10T06:16:58.849Z,94737.35
2018-06-10T06:19:24.827Z,94735.76
2018-06-10T06:21:50.880Z,94731.23
2018-06-10T06:24:16.861Z,94737.14
2018-06-10T06:26:42.842Z,94738.93
2018-06-10T06:29:08.821Z,94737.76
2018-06-10T06:31:34.807Z,94738.73
2018-06-10T06:34:00.781Z,94735.97
2018-06-10T06:36:26.757Z,94732.40
2018-06-10T06:38:52.873Z,94739.72
2018-06-10T06:41:18.862Z,94739.72
2018-06-10T06:43:44.861Z,94742.09
2018-06-10T06:46:10.852Z,94736.16
2018-06-10T06:48:36.883Z,94731.59
2018-06-10T06:51:02.868Z,94733.38
2018-06-10T06:53:28.863Z,94734.37
2018-06-10T06:55:54.841Z,94731.41
2018-06-10T06:58:20.834Z,94726.68
2018-06-10T07:00:46.827Z,94728.84
2018-06-10T07:03:12.817Z,94727.08
2018-06-10T07:05:38.833Z,94725.09
2018-06-10T07:08:04.817Z,94727.86
2018-06-10T07:10:30.832Z,94727.46
2018-06-10T07:12:56.937Z,94730.63
2018-06-10T07:15:22.980Z,94733.40
2018-06-10T07:17:48.988Z,94735.59
2018-06-10T07:20:14.988Z,94729.87
2018-06-10T07:22:41.002Z,94729.25
2018-06-10T07:25:07.013Z,94724.52
2018-06-10T07:27:33.073Z,94725.33
2018-06-10T07:29:59.088Z,94720.59
2018-06-10T07:32:25.098Z,94716.44
2018-06-10T07:34:51.107Z,94720.59
2018-06-10T07:37:17.126Z,94720.95
2018-06-10T07:39:43.128Z,94721.18
2018-06-10T07:42:09.146Z,94717.42
2018-06-10T07:44:35.166Z,94716.04
2018-06-10T07:47:01.150Z,94715.42
2018-06-10T07:49:27.132Z,94718.20
2018-06-10T07:51:53.196Z,94712.47
2018-06-10T07:54:19.183Z,94709.52
2018-06-10T07:56:45.203Z,94705.95
2018-06-10T07:59:11.229Z,94707.12
2018-06-10T08:01:37.222Z,94705.37
2018-06-10T08:04:03.232Z,94703.98
2018-06-10T08:06:29.337Z,94707.52
2018-06-10T08:08:55.348Z,94711.27
2018-06-10T08:11:21.360Z,94709.11
2018-06-10T08:13:47.341Z,94707.73
2018-06-10T08:16:13.360Z,94707.52
2018-06-10T08:18:39.395Z,94708.32
2018-06-10T08:21:05.387Z,94708.72
2018-06-10T08:23:31.398Z,94708.91
2018-06-10T08:25:57.384Z,94712.06
2018-06-10T08:28:23.395Z,94706.94
2018-06-10T08:30:49.412Z,94707.34
2018-06-10T08:33:15.397Z,94710.91
2018-06-10T08:35:41.380Z,94708.13
2018-06-10T08:38:07.366Z,94716.22
2018-06-10T08:40:33.386Z,94716.63
2018-06-10T08:42:59.367Z,94710.28
2018-06-10T08:45:25.375Z,94719.97
2018-06-10T08:47:51.436Z,94713.27
2018-06-10T08:50:17.431Z,94712.28
2018-06-10T08:52:43.421Z,94716.44
2018-06-10T08:55:09.439Z,94712.06
2018-06-10T08:57:35.518Z,94714.25
2018-06-10T09:00:01.623Z,94717.20
2018-06-10T09:02:27.613Z,94716.03
2018-06-10T09:04:53.671Z,94719.20
2018-06-10T09:07:19.653Z,94715.23
2018-06-10T09:09:45.661Z,94716.44
2018-06-10T09:12:11.682Z,94719.58
2018-06-10T09:14:37.695Z,94716.80
2018-06-10T09:17:03.680Z,94712.86
2018-06-10T09:19:29.690Z,94710.49
2018-06-10T09:21:55.688Z,94711.87
2018-06-10T09:24:21.708Z,94719.97
2018-06-10T09:26:47.753Z,94723.73
2018-06-10T09:29:13.729Z,94732.03
2018-06-10T09:31:39.739Z,94739.75
2018-06-10T09:34:05.750Z,94750.23
2018-06-10T09:36:31.736Z,94750.64
2018-06-10T09:38:57.749Z,94751.81
2018-06-10T09:41:23.760Z,94743.71
2018-06-10T09:43:49.823Z,94747.47
2018-06-10T09:46:15.808Z,94735.59
2018-06-10T09:48:41.858Z,94729.25
2018-06-10T09:51:07.841Z,94741.92
2018-06-10T09:53:33.854Z,94751.20
2018-06-10T09:55:59.841Z,94750.41
2018-06-10T09:58:25.860Z,94759.13
2018-06-10T10:00:51.908Z,94765.24
2018-06-10T10:03:17.948Z,94763.67
2018-06-10T10:05:43.955Z,94758.14
2018-06-10T10:08:09.967Z,94760.33
2018-06-10T10:10:35.959Z,94759.71
2018-06-10T10:13:01.975Z,94759.13
2018-06-10T10:15:27.956Z,94752.21
2018-06-10T10:17:53.945Z,94748.86
2018-06-10T10:20:19.968Z,94750.64
2018-06-10T10:22:45.982Z,94743.32
2018-06-10T10:25:11.978Z,94736.79
2018-06-10T10:27:37.962Z,94745.68
2018-06-10T10:30:03.999Z,94752.60
2018-06-10T10:32:30.084Z,94741.70
2018-06-10T10:34:56.132Z,94743.09
2018-06-10T10:37:22.197Z,94738.17
2018-06-10T10:39:48.182Z,94740.32
2018-06-10T10:42:14.188Z,94735.40
2018-06-10T10:44:40.195Z,94732.23
2018-06-10T10:47:06.239Z,94729.65
2018-06-10T10:49:32.248Z,94723.30
2018-06-10T10:51:58.220Z,94722.73
2018-06-10T10:54:24.207Z,94724.11
2018-06-10T10:56:50.191Z,94723.92
2018-06-10T10:59:16.169Z,94727.88
2018-06-10T11:01:42.253Z,94718.80
2018-06-10T11:04:08.226Z,94721.76
2018-06-10T11:06:34.243Z,94711.27
2018-06-10T11:09:00.364Z,94714.27
2018-06-10T11:11:26.344Z,94707.74
2018-06-10T11:13:52.317Z,94710.69
2018-06-10T11:16:18.343Z,94711.09
2018-06-10T11:18:44.321Z,94706.36
2018-06-10T11:21:10.301Z,94708.32
2018-06-10T11:23:36.325Z,94709.53
2018-06-10T11:26:02.306Z,94705.74
2018-06-10T11:28:28.287Z,94699.22
2018-06-10T11:30:54.268Z,94703.59
2018-06-10T11:33:20.253Z,94712.67
2018-06-10T11:35:46.306Z,94716.83
2018-06-10T11:38:12.295Z,94707.35
2018-06-10T11:40:38.283Z,94709.32
2018-06-10T11:43:04.281Z,94711.69
2018-06-10T11:45:30.427Z,94713.08
2018-06-10T11:47:56.415Z,94720.00
2018-06-10T11:50:22.395Z,94704.37
2018-06-10T11:52:48.381Z,94712.48
2018-06-10T11:55:14.360Z,94714.85
2018-06-10T11:57:40.379Z,94708.73
2018-06-10T12:00:06.429Z,94707.75
2018-06-10T12:02:32.373Z,94707.75
2018-06-10T12:04:58.356Z,94708.92
2018-06-10T12:07:24.368Z,94706.16
2018-06-10T12:09:50.343Z,94707.94
2018-06-10T12:14:42.329Z,94705.56
2018-06-10T12:17:08.307Z,94706.16
2018-06-10T12:19:34.291Z,94707.95
2018-06-10T12:22:00.276Z,94707.36
2018-06-10T12:24:26.261Z,94706.38
2018-06-10T12:26:52.240Z,94698.26
2018-06-10T12:29:18.346Z,94703.00
2018-06-10T12:31:44.276Z,94702.23
2018-06-10T12:34:10.413Z,94699.47
2018-06-10T12:36:36.742Z,94689.77
2018-06-10T12:39:03.442Z,94692.14
2018-06-10T12:41:29.475Z,94684.42
2018-06-10T12:43:55.722Z,94686.02
2018-06-10T12:46:21.718Z,94682.45
2018-06-10T12:48:47.712Z,94673.16
2018-06-10T12:51:13.706Z,94671.95
2018-06-10T12:53:39.688Z,94666.41
2018-06-10T12:56:05.975Z,94661.86
2018-06-10T12:58:32.878Z,94668.20
2018-06-10T13:00:58.863Z,94670.57
2018-06-10T13:03:24.887Z,94676.32
2018-06-10T13:05:50.873Z,94668.02
2018-06-10T13:08:16.866Z,94660.29
2018-06-10T13:10:42.953Z,94659.09
2018-06-10T13:13:09.086Z,94654.75
2018-06-10T13:15:35.234Z,94655.14
2018-06-10T13:18:01.305Z,94659.09
2018-06-10T13:20:27.300Z,94660.69
2018-06-10T13:22:53.403Z,94651.00
2018-06-10T13:25:19.919Z,94655.73
2018-06-10T13:27:46.484Z,94651.41
2018-06-10T13:30:12.466Z,94659.32
2018-06-10T13:32:38.509Z,94652.58
2018-06-10T13:35:04.498Z,94653.56
2018-06-10T13:37:30.483Z,94656.55
2018-06-10T13:39:56.531Z,94655.34
2018-06-10T13:42:22.507Z,94642.08
2018-06-10T13:44:48.492Z,94646.05
2018-06-10T13:47:14.481Z,94644.08
2018-06-10T13:49:40.479Z,94643.28
2018-06-10T13:52:06.456Z,94649.81
2018-06-10T13:54:32.436Z,94651.59
2018-06-10T13:56:58.419Z,94652.00
2018-06-10T13:59:24.427Z,94649.82
2018-06-10T14:01:50.383Z,94642.31
2018-06-10T14:04:16.361Z,94638.55
2018-06-10T14:06:42.406Z,94639.53
2018-06-10T14:09:08.359Z,94636.77
2018-06-10T14:11:34.314Z,94639.95
2018-06-10T14:14:00.294Z,94642.89
2018-06-10T14:16:26.279Z,94634.41
2018-06-10T14:18:52.266Z,94628.27
2018-06-10T14:21:18.254Z,94635.96
2018-06-10T14:23:44.804Z,94634.19
2018-06-10T14:26:11.644Z,94639.13
2018-06-10T14:28:37.699Z,94632.61
2018-06-10T14:31:03.712Z,94633.42
2018-06-10T14:33:29.690Z,94633.20
2018-06-10T14:35:55.753Z,94639.72
2018-06-10T14:38:22.214Z,94634.98
2018-06-10T14:40:48.112Z,94635.56
2018-06-10T14:43:14.203Z,94633.19
2018-06-10T14:45:40.134Z,94628.23
2018-06-10T14:48:06.269Z,94631.22
2018-06-10T14:50:32.389Z,94628.45
2018-06-10T14:52:58.373Z,94627.65
2018-06-10T14:55:25.237Z,94633.41
2018-06-10T14:57:51.094Z,94633.41
2018-06-10T15:00:17.345Z,94634.97
2018-06-10T15:02:43.237Z,94635.16
2018-06-10T15:05:09.500Z,94633.19
2018-06-10T15:07:35.526Z,94631.40
2018-06-10T15:10:01.563Z,94641.30
2018-06-10T15:12:27.536Z,94644.84
2018-06-10T15:14:53.789Z,94644.84
2018-06-10T15:17:19.977Z,94646.84
2018-06-10T15:19:45.935Z,94643.67
2018-06-10T15:22:12.202Z,94656.14
2018-06-10T15:24:38.324Z,94655.91
2018-06-10T15:27:04.286Z,94660.47
2018-06-10T15:29:30.287Z,94659.89
2018-06-10T15:31:56.337Z,94656.72
2018-06-10T15:34:22.366Z,94655.14
2018-06-10T15:36:48.416Z,94651.39
2018-06-10T15:39:14.445Z,94660.47
2018-06-10T15:41:40.689Z,94654.16
2018-06-10T15:44:06.662Z,94649.61
2018-06-10T15:46:32.674Z,94648.99
2018-06-10T15:48:58.853Z,94653.15
2018-06-10T15:51:24.906Z,94647.42
2018-06-10T15:53:51.407Z,94650.59
2018-06-10T15:56:17.328Z,94655.33
2018-06-10T15:58:43.619Z,94660.86
2018-06-10T16:01:09.567Z,94664.44
2018-06-10T16:03:35.591Z,94656.71
2018-06-10T16:06:02.637Z,94668.99
2018-06-10T16:08:28.677Z,94671.36
2018-06-10T16:10:55.764Z,94674.93
2018-06-10T16:13:22.908Z,94683.61
2018-06-10T16:15:49.670Z,94691.55
2018-06-10T16:18:16.408Z,94696.47
2018-06-10T16:20:43.170Z,94698.66
2018-06-10T16:23:10.309Z,94713.89
2018-06-10T16:25:38.853Z,94713.31
2018-06-10T16:28:04.834Z,94713.09
2018-06-10T16:30:31.305Z,94710.33
2018-06-10T16:32:57.732Z,94712.91
2018-06-10T16:35:23.684Z,94713.71
2018-06-10T16:37:50.563Z,94714.70
2018-06-10T16:40:16.423Z,94716.08
2018-06-10T16:42:42.703Z,94717.24
2018-06-10T16:45:09.414Z,94720.81
2018-06-10T16:47:35.555Z,94718.84
2018-06-10T16:50:03.420Z,94719.61
2018-06-10T16:52:30.154Z,94718.63
2018-06-10T16:54:56.280Z,94720.41
2018-06-10T16:57:22.252Z,94720.41
2018-06-10T16:59:48.242Z,94720.63
2018-06-10T17:02:14.229Z,94721.02
2018-06-10T17:04:41.237Z,94727.58
2018-06-10T17:07:08.210Z,94734.87
2018-06-10T17:09:34.931Z,94732.91
2018-06-10T17:12:00.839Z,94740.63
2018-06-10T17:14:26.817Z,94733.89
2018-06-10T17:16:52.801Z,94736.86
2018-06-10T17:19:18.820Z,94737.05
2018-06-10T17:21:44.869Z,94734.09
2018-06-10T17:24:11.116Z,94738.42
2018-06-10T17:26:37.149Z,94735.66
2018-06-10T17:29:03.147Z,94740.39
2018-06-10T17:31:29.126Z,94743.57
2018-06-10T17:33:58.275Z,94748.92
2018-06-10T17:36:24.356Z,94757.84
2018-06-10T17:38:50.387Z,94756.86
2018-06-10T17:41:16.630Z,94758.83
2018-06-10T17:43:42.657Z,94767.35
2018-06-10T17:46:08.862Z,94762.20
2018-06-10T17:48:34.917Z,94766.14
2018-06-10T17:51:00.918Z,94764.75
2018-06-10T17:53:26.912Z,94776.05
2018-06-10T17:55:52.989Z,94779.41
2018-06-10T17:58:18.940Z,94786.15
2018-06-10T18:00:44.980Z,94782.19
2018-06-10T18:03:10.990Z,94781.60
2018-06-10T18:05:36.982Z,94781.60
2018-06-10T18:08:03.042Z,94787.14
2018-06-10T18:10:29.023Z,94786.34
2018-06-10T18:12:55.003Z,94785.94
2018-06-10T18:15:20.994Z,94790.30
2018-06-10T18:17:46.978Z,94790.09
2018-06-10T18:20:12.956Z,94797.59
2018-06-10T18:22:38.936Z,94797.02
2018-06-10T18:25:04.919Z,94801.58
2018-06-10T18:27:30.904Z,94801.58
2018-06-10T18:29:56.895Z,94796.03
2018-06-10T18:32:22.877Z,94802.16
2018-06-10T18:34:48.860Z,94802.55
2018-06-10T18:37:14.842Z,94805.91
2018-06-10T18:39:40.831Z,94809.08
2018-06-10T18:42:07.788Z,94803.14
2018-06-10T18:44:33.734Z,94808.67
2018-06-10T18:46:59.736Z,94806.12
2018-06-10T18:49:25.738Z,94809.31
2018-06-10T18:51:51.764Z,94811.68
2018-06-10T18:54:17.746Z,94812.86
2018-06-10T18:56:43.724Z,94810.30
2018-06-10T18:59:09.721Z,94813.25
2018-06-10T19:01:35.703Z,94804.75
2018-06-10T19:04:01.701Z,94809.10
2018-06-10T19:06:27.675Z,94806.54
2018-06-10T19:08:53.672Z,94808.12
2018-06-10T19:11:19.656Z,94803.39
2018-06-10T19:13:45.769Z,94815.05
2018-06-10T19:16:11.786Z,94819.20
2018-06-10T19:18:37.862Z,94821.17
2018-06-10T19:21:03.887Z,94824.16
2018-06-10T19:23:29.864Z,94820.41
2018-06-10T19:25:55.879Z,94820.99
2018-06-10T19:28:21.883Z,94831.09
2018-06-10T19:30:47.871Z,94826.13
2018-06-10T19:33:13.859Z,94833.05
2018-06-10T19:35:39.841Z,94832.48
2018-06-10T19:38:05.825Z,94836.81
2018-06-10T19:40:31.843Z,94834.04
2018-06-10T19:42:57.827Z,94840.56
2018-06-10T19:45:23.802Z,94845.92
2018-06-10T19:47:49.787Z,94842.34
2018-06-10T19:50:15.776Z,94840.38
2018-06-10T19:52:41.766Z,94847.31
2018-06-10T19:55:07.757Z,94849.27
2018-06-10T19:57:33.750Z,94844.14
2018-06-10T19:59:59.749Z,94845.34
2018-06-10T20:02:25.740Z,94849.11
2018-06-10T20:04:51.722Z,94845.95
2018-06-10T20:07:17.717Z,94856.06
2018-06-10T20:09:43.701Z,94856.66
2018-06-10T20:12:09.686Z,94860.82
2018-06-10T20:14:35.667Z,94854.11
2018-06-10T20:17:01.659Z,94859.25
2018-06-10T20:19:27.645Z,94862.02
2018-06-10T20:21:53.623Z,94862.78
2018-06-10T20:24:19.607Z,94863.57
2018-06-10T20:26:45.591Z,94866.73
2018-06-10T20:29:11.567Z,94859.39
2018-06-10T20:31:37.557Z,94866.91
2018-06-10T20:34:03.535Z,94870.86
2018-06-10T20:36:29.521Z,94864.52
2018-06-10T20:38:55.507Z,94865.72
2018-06-10T20:41:21.531Z,94866.30
2018-06-10T20:43:47.538Z,94867.69
2018-06-10T20:46:13.519Z,94862.73
2018-06-10T20:48:39.513Z,94857.39
2018-06-10T20:51:05.531Z,94856.99
2018-06-10T20:53:31.512Z,94852.64
2018-06-10T20:55:57.496Z,94852.83
2018-06-10T20:58:23.479Z,94859.35
2018-06-10T21:00:49.463Z,94853.41
2018-06-10T21:03:15.453Z,94857.16
2018-06-10T21:05:41.466Z,94857.77
2018-06-10T21:08:07.442Z,94860.73
2018-06-10T21:10:33.422Z,94857.15
2018-06-10T21:12:59.403Z,94861.92
2018-06-10T21:15:25.383Z,94862.50
2018-06-10T21:17:51.367Z,94867.05
2018-06-10T21:20:17.350Z,94864.28
2018-06-10T21:22:43.328Z,94861.70
2018-06-10T21:25:09.310Z,94854.58
2018-06-10T21:27:35.288Z,94858.52
2018-06-10T21:30:01.289Z,94857.35
2018-06-10T21:32:27.271Z,94865.66
2018-06-10T21:34:53.262Z,94861.69
2018-06-10T21:37:19.243Z,94855.74
2018-06-10T21:39:45.226Z,94854.57
2018-06-10T21:42:11.200Z,94854.97
2018-06-10T21:44:37.238Z,94858.11
2018-06-10T21:47:03.214Z,94860.11
2018-06-10T21:49:29.196Z,94862.66
2018-06-10T21:51:55.182Z,94859.70
2018-06-10T21:54:21.165Z,94858.91
2018-06-10T21:56:47.148Z,94861.48
2018-06-10T21:59:13.169Z,94867.02
2018-06-10T22:01:39.177Z,94871.75
2018-06-10T22:04:05.157Z,94865.23
2018-06-10T22:06:31.149Z,94865.81
2018-06-10T22:08:57.128Z,94859.47
2018-06-10T22:11:23.108Z,94860.09
2018-06-10T22:13:49.097Z,94861.06
2018-06-10T22:16:15.077Z,94855.13
2018-06-10T22:18:41.067Z,94849.19
2018-06-10T22:21:07.047Z,94847.80
2018-06-10T22:23:33.075Z,94855.71
2018-06-10T22:25:59.058Z,94856.69
2018-06-10T22:28:25.039Z,94850.38
2018-06-10T22:30:51.023Z,94853.92
2018-06-10T22:33:17.014Z,94856.32
2018-06-10T22:35:42.990Z,94847.61
2018-06-10T22:38:09.011Z,94854.53
2018-06-10T22:40:34.987Z,94851.77
2018-06-10T22:43:00.990Z,94846.41
2018-06-10T22:45:26.973Z,94845.60
2018-06-10T22:47:52.952Z,94850.96
2018-06-10T22:50:18.925Z,94850.96
2018-06-10T22:52:44.950Z,94849.58
2018-06-10T22:55:10.918Z,94850.56
2018-06-10T22:57:36.901Z,94844.83
2018-06-10T23:00:02.932Z,94841.66
2018-06-10T23:02:28.906Z,94844.22
2018-06-10T23:04:54.882Z,94839.88
2018-06-10T23:07:20.868Z,94842.06
2018-06-10T23:09:46.864Z,94843.05
2018-06-10T23:12:12.847Z,94855.11
2018-06-10T23:14:38.826Z,94851.75
2018-06-10T23:17:04.834Z,94865.78
2018-06-10T23:19:30.811Z,94857.07
2018-06-10T23:21:56.816Z,94859.26
2018-06-10T23:24:22.810Z,94862.61
2018-06-10T23:26:48.796Z,94864.39
2018-06-10T23:29:14.771Z,94862.61
2018-06-10T23:31:40.767Z,94863.59
2018-06-10T23:34:06.751Z,94860.82
2018-06-10T23:36:32.735Z,94870.14
2018-06-10T23:38:58.710Z,94867.95
2018-06-10T23:41:24.714Z,94865.59
2018-06-10T23:43:50.694Z,94870.52
2018-06-10T23:46:16.670Z,94870.72
2018-06-10T23:48:42.655Z,94865.19
2018-06-10T23:51:08.631Z,94861.83
2018-06-10T23:53:34.618Z,94859.83
2018-06-10T23:56:00.594Z,94861.61
2018-06-10T23:58:26.578Z,94861.22
